createdAt,value
2017-10-16T00:01:36.973Z,10.23
2017-10-16T00:04:05.236Z,12.37
2017-10-16T00:06:33.961Z,10.63
2017-10-16T00:09:02.228Z,11.57
2017-10-16T00:11:30.517Z,11.13
2017-10-16T00:13:59.588Z,11.30
2017-10-16T00:16:27.985Z,10.80
2017-10-16T00:18:56.257Z,11.53
2017-10-16T00:21:24.561Z,10.77
2017-10-16T00:23:53.727Z,12.40
2017-10-16T00:26:22.010Z,14.20
2017-10-16T00:28:50.278Z,11.20
2017-10-16T00:31:18.664Z,10.73
2017-10-16T00:33:46.933Z,12.03
2017-10-16T00:36:15.209Z,11.37
2017-10-16T00:38:43.588Z,12.27
2017-10-16T00:41:11.868Z,10.30
2017-10-16T00:43:40.250Z,12.63
2017-10-16T00:46:08.554Z,15.40
2017-10-16T00:48:37.720Z,12.37
2017-10-16T00:51:05.997Z,10.53
2017-10-16T00:53:34.320Z,11.13
2017-10-16T00:56:02.601Z,11.73
2017-10-16T00:58:30.894Z,14.50
2017-10-16T01:00:59.149Z,10.93
2017-10-16T01:03:27.487Z,11.97
2017-10-16T01:05:55.761Z,11.70
2017-10-16T01:08:24.049Z,13.20
2017-10-16T01:10:52.421Z,11.90
2017-10-16T01:13:20.713Z,11.00
2017-10-16T01:15:48.986Z,10.63
2017-10-16T01:18:18.782Z,10.83
2017-10-16T01:20:47.056Z,11.10
2017-10-16T01:23:15.341Z,12.40
2017-10-16T01:25:43.627Z,13.90
2017-10-16T01:28:12.010Z,10.80
2017-10-16T01:30:40.282Z,15.57
2017-10-16T01:33:08.649Z,11.10
2017-10-16T01:35:36.924Z,13.53
2017-10-16T01:38:05.202Z,11.37
2017-10-16T01:40:33.480Z,12.57
2017-10-16T01:43:01.765Z,12.03
2017-10-16T01:45:30.035Z,13.00
2017-10-16T01:47:58.316Z,10.87
2017-10-16T01:50:26.593Z,10.30
2017-10-16T01:52:54.903Z,12.07
2017-10-16T01:55:23.967Z,14.83
2017-10-16T01:57:53.882Z,11.40
2017-10-16T02:00:22.152Z,12.10
2017-10-16T02:02:50.426Z,13.17
2017-10-16T02:05:18.713Z,14.57
2017-10-16T02:07:47.085Z,11.60
2017-10-16T02:10:15.369Z,12.10
2017-10-16T02:12:43.648Z,9.73
2017-10-16T02:15:11.929Z,12.17
2017-10-16T02:17:40.206Z,10.77
2017-10-16T02:20:08.499Z,12.37
2017-10-16T02:22:36.778Z,11.80
2017-10-16T02:25:05.842Z,10.00
2017-10-16T02:27:34.090Z,11.70
2017-10-16T02:30:02.392Z,12.30
2017-10-16T02:32:30.669Z,9.20
2017-10-16T02:34:58.954Z,10.93
2017-10-16T02:37:27.230Z,10.50
2017-10-16T02:39:55.515Z,9.77
2017-10-16T02:42:23.785Z,10.30
2017-10-16T02:44:52.063Z,8.50
2017-10-16T02:47:20.371Z,10.50
2017-10-16T02:49:48.636Z,11.30
2017-10-16T02:52:16.897Z,11.17
2017-10-16T02:54:45.194Z,11.10
2017-10-16T02:57:14.221Z,10.60
2017-10-16T02:59:42.540Z,11.00
2017-10-16T03:02:10.796Z,8.90
2017-10-16T03:04:39.096Z,9.20
2017-10-16T03:07:07.367Z,8.47
2017-10-16T03:09:35.653Z,8.70
2017-10-16T03:12:03.908Z,9.90
2017-10-16T03:14:32.197Z,9.30
2017-10-16T03:17:00.460Z,12.43
2017-10-16T03:19:28.757Z,8.73
2017-10-16T03:21:57.043Z,11.20
2017-10-16T03:24:25.313Z,8.50
2017-10-16T03:26:53.595Z,11.67
2017-10-16T03:29:21.890Z,10.50
2017-10-16T03:31:50.929Z,10.20
2017-10-16T03:34:19.234Z,10.30
2017-10-16T03:36:47.555Z,9.27
2017-10-16T03:39:16.584Z,8.27
2017-10-16T03:41:44.871Z,10.47
2017-10-16T03:44:13.145Z,13.30
2017-10-16T03:46:42.263Z,8.67
2017-10-16T03:49:10.539Z,10.30
2017-10-16T03:51:38.916Z,9.80
2017-10-16T03:54:07.193Z,9.60
2017-10-16T03:56:36.207Z,10.63
2017-10-16T03:59:04.483Z,10.23
2017-10-16T04:01:32.865Z,8.33
2017-10-16T04:04:01.138Z,9.33
2017-10-16T04:06:29.499Z,12.33
2017-10-16T04:08:57.785Z,8.50
2017-10-16T04:11:27.581Z,10.83
2017-10-16T04:13:55.845Z,9.10
2017-10-16T04:16:24.138Z,11.33
2017-10-16T04:18:52.434Z,11.43
2017-10-16T04:21:20.805Z,10.30
2017-10-16T04:23:49.078Z,11.20
2017-10-16T04:26:17.365Z,9.37
2017-10-16T04:28:45.636Z,9.30
2017-10-16T04:31:14.011Z,9.97
2017-10-16T04:33:42.264Z,12.00
2017-10-16T04:36:10.569Z,13.03
2017-10-16T04:38:38.844Z,11.33
2017-10-16T04:41:07.125Z,12.40
2017-10-16T04:43:35.404Z,12.87
2017-10-16T04:46:04.457Z,9.73
2017-10-16T04:48:32.725Z,12.80
2017-10-16T04:51:01.014Z,11.53
2017-10-16T04:53:29.285Z,12.10
2017-10-16T04:55:57.577Z,12.43
2017-10-16T04:58:25.845Z,11.40
2017-10-16T05:00:54.168Z,13.27
2017-10-16T05:03:22.437Z,16.03
2017-10-16T05:05:50.760Z,13.10
2017-10-16T05:08:19.827Z,12.27
2017-10-16T05:10:48.102Z,14.20
2017-10-16T05:13:16.465Z,14.33
2017-10-16T05:15:45.511Z,10.97
2017-10-16T05:18:13.849Z,14.77
2017-10-16T05:20:42.117Z,12.83
2017-10-16T05:23:10.493Z,11.83
2017-10-16T05:25:38.762Z,14.83
2017-10-16T05:28:07.064Z,19.37
2017-10-16T05:30:35.348Z,12.80
2017-10-16T05:33:04.424Z,14.63
2017-10-16T05:35:32.735Z,13.77
2017-10-16T05:38:01.032Z,14.40
2017-10-16T05:40:30.258Z,14.40
2017-10-16T05:43:00.435Z,13.70
2017-10-16T05:45:29.010Z,12.40
2017-10-16T05:47:58.918Z,12.70
2017-10-16T05:50:29.131Z,12.77
2017-10-16T05:52:57.513Z,11.83
2017-10-16T05:55:25.795Z,13.20
2017-10-16T05:57:54.095Z,14.00
2017-10-16T06:00:22.365Z,14.10
2017-10-16T06:02:51.441Z,14.40
2017-10-16T06:05:19.777Z,16.37
2017-10-16T06:07:48.871Z,15.80
2017-10-16T06:10:17.185Z,15.37
2017-10-16T06:12:45.484Z,12.60
2017-10-16T06:15:13.785Z,13.70
2017-10-16T06:17:43.622Z,12.07
2017-10-16T06:20:12.706Z,12.37
2017-10-16T06:22:41.000Z,12.03
2017-10-16T06:25:10.041Z,11.77
2017-10-16T06:27:38.341Z,13.23
2017-10-16T06:30:06.609Z,11.10
2017-10-16T06:32:34.908Z,15.23
2017-10-16T06:35:03.189Z,18.03
2017-10-16T06:37:31.574Z,12.53
2017-10-16T06:39:59.945Z,13.43
2017-10-16T06:42:28.246Z,11.60
2017-10-16T06:44:57.294Z,13.77
2017-10-16T06:47:25.598Z,14.40
2017-10-16T06:49:53.970Z,15.50
2017-10-16T06:52:22.268Z,12.80
2017-10-16T06:54:50.546Z,11.63
2017-10-16T06:57:18.901Z,15.20
2017-10-16T06:59:47.289Z,15.20
2017-10-16T07:02:15.666Z,14.27
2017-10-16T07:04:44.041Z,14.20
2017-10-16T07:07:12.515Z,14.57
2017-10-16T07:09:40.809Z,12.77
2017-10-16T07:12:09.091Z,13.00
2017-10-16T07:14:37.465Z,11.23
2017-10-16T07:17:05.842Z,13.20
2017-10-16T07:19:34.217Z,15.63
2017-10-16T07:22:02.496Z,10.83
2017-10-16T07:24:30.871Z,10.90
2017-10-16T07:26:59.148Z,12.90
2017-10-16T07:29:27.449Z,11.40
2017-10-16T07:31:56.496Z,13.10
2017-10-16T07:34:24.803Z,12.20
2017-10-16T07:36:53.173Z,10.73
2017-10-16T07:39:21.455Z,12.87
2017-10-16T07:41:49.731Z,10.83
2017-10-16T07:44:18.016Z,14.10
2017-10-16T07:46:46.290Z,11.87
2017-10-16T07:49:14.573Z,12.97
2017-10-16T07:51:43.609Z,11.60
2017-10-16T07:54:11.942Z,13.80
2017-10-16T07:56:40.283Z,12.80
2017-10-16T07:59:08.594Z,12.73
2017-10-16T08:01:36.967Z,12.07
2017-10-16T08:04:05.258Z,13.40
2017-10-16T08:06:33.538Z,14.30
2017-10-16T08:09:01.842Z,11.50
2017-10-16T08:11:30.903Z,11.37
2017-10-16T08:13:59.284Z,11.00
2017-10-16T08:16:27.658Z,11.13
2017-10-16T08:18:56.029Z,11.90
2017-10-16T08:21:24.317Z,11.63
2017-10-16T08:23:52.598Z,9.93
2017-10-16T08:26:20.867Z,13.30
2017-10-16T08:28:49.162Z,11.13
2017-10-16T08:31:17.424Z,10.03
2017-10-16T08:33:45.705Z,9.63
2017-10-16T08:36:13.973Z,9.93
2017-10-16T08:38:42.354Z,10.97
2017-10-16T08:41:11.433Z,12.23
2017-10-16T08:43:39.811Z,9.37
2017-10-16T08:46:08.100Z,11.90
2017-10-16T08:48:36.463Z,9.50
2017-10-16T08:51:04.725Z,8.60
2017-10-16T08:53:33.029Z,10.07
2017-10-16T08:56:01.295Z,10.50
2017-10-16T08:58:29.601Z,10.23
2017-10-16T09:00:57.953Z,10.17
2017-10-16T09:03:26.230Z,12.90
2017-10-16T09:05:54.486Z,8.33
2017-10-16T09:08:22.787Z,8.77
2017-10-16T09:10:51.061Z,9.93
2017-10-16T09:13:19.341Z,9.97
2017-10-16T09:15:47.629Z,8.20
2017-10-16T09:18:16.714Z,8.50
2017-10-16T09:20:45.095Z,9.00
2017-10-16T09:23:13.352Z,9.60
2017-10-16T09:25:41.657Z,11.50
2017-10-16T09:28:09.934Z,8.40
2017-10-16T09:30:38.209Z,7.77
2017-10-16T09:33:06.486Z,9.00
2017-10-16T09:35:34.771Z,7.97
2017-10-16T09:38:03.044Z,9.63
2017-10-16T09:40:31.417Z,7.70
2017-10-16T09:42:59.802Z,9.93
2017-10-16T09:45:28.072Z,9.10
2017-10-16T09:47:56.340Z,8.20
2017-10-16T09:50:24.629Z,9.07
2017-10-16T09:52:52.897Z,8.13
2017-10-16T09:55:21.174Z,12.53
2017-10-16T09:57:49.469Z,12.00
2017-10-16T10:00:17.849Z,8.43
2017-10-16T10:02:46.106Z,7.60
2017-10-16T10:05:14.417Z,8.53
2017-10-16T10:07:42.673Z,8.20
2017-10-16T10:10:10.953Z,9.20
2017-10-16T10:12:39.222Z,9.13
2017-10-16T10:15:07.596Z,7.93
2017-10-16T10:17:35.856Z,9.43
2017-10-16T10:20:04.149Z,8.07
2017-10-16T10:22:32.405Z,9.70
2017-10-16T10:25:00.701Z,8.80
2017-10-16T10:27:28.981Z,7.97
2017-10-16T10:29:57.354Z,8.13
2017-10-16T10:32:25.621Z,9.03
2017-10-16T10:34:53.889Z,9.10
2017-10-16T10:37:22.197Z,10.23
2017-10-16T10:39:50.481Z,10.20
2017-10-16T10:42:19.506Z,9.00
2017-10-16T10:44:48.553Z,8.63
2017-10-16T10:47:16.840Z,8.77
2017-10-16T10:49:45.125Z,9.93
2017-10-16T10:52:14.928Z,8.80
2017-10-16T10:54:43.300Z,9.37
2017-10-16T10:57:11.564Z,8.53
2017-10-16T10:59:39.868Z,8.83
2017-10-16T11:02:08.122Z,8.50
2017-10-16T11:04:36.398Z,9.00
2017-10-16T11:07:04.667Z,9.50
2017-10-16T11:09:32.960Z,8.63
2017-10-16T11:12:01.226Z,9.40
2017-10-16T11:14:29.516Z,9.20
2017-10-16T11:16:57.790Z,13.70
2017-10-16T11:19:26.072Z,9.23
2017-10-16T11:21:54.352Z,14.03
2017-10-16T11:24:22.726Z,7.80
2017-10-16T11:26:51.017Z,9.07
2017-10-16T11:29:19.289Z,9.07
2017-10-16T11:31:47.669Z,8.57
2017-10-16T11:34:15.949Z,9.20
2017-10-16T11:36:44.225Z,9.40
2017-10-16T11:39:12.478Z,9.03
2017-10-16T11:41:40.757Z,9.30
2017-10-16T11:44:09.052Z,7.93
2017-10-16T11:46:37.422Z,8.57
2017-10-16T11:49:05.708Z,9.30
2017-10-16T11:51:33.993Z,8.20
2017-10-16T11:54:02.265Z,8.93
2017-10-16T11:56:32.079Z,8.43
2017-10-16T11:59:00.461Z,9.00
2017-10-16T12:01:28.852Z,8.40
2017-10-16T12:03:57.221Z,9.83
2017-10-16T12:06:25.602Z,8.50
2017-10-16T12:08:53.877Z,10.30
2017-10-16T12:11:22.254Z,8.90
2017-10-16T12:13:50.540Z,8.97
2017-10-16T12:16:18.823Z,9.60
2017-10-16T12:18:47.194Z,9.00
2017-10-16T12:21:15.489Z,8.87
2017-10-16T12:23:44.562Z,9.40
2017-10-16T12:26:12.946Z,9.00
2017-10-16T12:28:41.204Z,8.93
2017-10-16T12:31:09.481Z,8.63
2017-10-16T12:33:37.764Z,10.30
2017-10-16T12:36:06.140Z,8.20
2017-10-16T12:38:34.398Z,9.63
2017-10-16T12:41:02.677Z,8.57
2017-10-16T12:43:30.941Z,9.30
2017-10-16T12:45:59.224Z,10.40
2017-10-16T12:48:27.505Z,9.50
2017-10-16T12:50:55.808Z,9.30
2017-10-16T12:53:24.196Z,8.70
2017-10-16T12:55:53.246Z,8.80
2017-10-16T12:58:21.513Z,9.07
2017-10-16T13:00:49.803Z,8.40
2017-10-16T13:03:18.053Z,9.13
2017-10-16T13:05:46.337Z,8.90
2017-10-16T13:08:15.371Z,8.07
2017-10-16T13:10:43.769Z,9.10
2017-10-16T13:13:12.045Z,8.50
2017-10-16T13:15:40.325Z,8.77
2017-10-16T13:18:08.593Z,8.20
2017-10-16T13:20:36.873Z,9.63
2017-10-16T13:23:05.145Z,7.83
2017-10-16T13:25:33.522Z,7.77
2017-10-16T13:28:01.913Z,8.57
2017-10-16T13:30:30.167Z,11.33
2017-10-16T13:32:58.557Z,9.53
2017-10-16T13:35:26.809Z,9.03
2017-10-16T13:37:55.085Z,8.97
2017-10-16T13:40:23.390Z,8.00
2017-10-16T13:42:51.671Z,8.83
2017-10-16T13:45:19.939Z,8.60
2017-10-16T13:47:48.321Z,8.80
2017-10-16T13:50:16.572Z,7.73
2017-10-16T13:52:44.845Z,9.13
2017-10-16T13:55:13.151Z,7.57
2017-10-16T13:57:41.428Z,7.37
2017-10-16T14:00:09.817Z,8.33
2017-10-16T14:02:38.103Z,8.47
2017-10-16T14:05:06.353Z,7.57
2017-10-16T14:07:34.744Z,7.37
2017-10-16T14:10:03.002Z,9.63
2017-10-16T14:12:31.300Z,8.00
2017-10-16T14:14:59.561Z,7.83
2017-10-16T14:17:27.844Z,8.50
2017-10-16T14:19:56.110Z,8.20
2017-10-16T14:22:24.405Z,8.40
2017-10-16T14:24:52.660Z,9.03
2017-10-16T14:27:20.947Z,7.67
2017-10-16T14:29:49.240Z,9.30
2017-10-16T14:32:17.616Z,8.77
2017-10-16T14:34:45.892Z,9.10
2017-10-16T14:37:14.170Z,9.10
2017-10-16T14:39:42.488Z,13.20
2017-10-16T14:42:11.544Z,10.07
2017-10-16T14:44:40.185Z,13.17
2017-10-16T14:47:08.667Z,8.40
2017-10-16T14:49:40.027Z,7.97
2017-10-16T14:52:09.112Z,9.87
2017-10-16T14:54:38.160Z,10.17
2017-10-16T14:57:07.333Z,9.47
2017-10-16T14:59:35.813Z,9.97
2017-10-16T15:02:07.090Z,10.00
2017-10-16T15:04:35.828Z,9.30
2017-10-16T15:07:04.213Z,10.00
2017-10-16T15:09:33.291Z,10.57
2017-10-16T15:12:01.583Z,10.13
2017-10-16T15:14:29.897Z,11.33
2017-10-16T15:16:58.297Z,10.40
2017-10-16T15:19:26.592Z,12.53
2017-10-16T15:21:55.756Z,10.90
2017-10-16T15:24:24.136Z,11.13
2017-10-16T15:26:52.820Z,12.20
2017-10-16T15:29:21.227Z,10.93
2017-10-16T15:31:49.538Z,11.40
2017-10-16T15:34:18.582Z,10.83
2017-10-16T15:36:46.862Z,11.70
2017-10-16T15:39:15.154Z,11.40
2017-10-16T15:41:43.428Z,11.50
2017-10-16T15:44:11.821Z,10.60
2017-10-16T15:46:40.239Z,10.60
2017-10-16T15:49:08.513Z,11.73
2017-10-16T15:51:36.794Z,11.30
2017-10-16T15:54:05.096Z,11.43
2017-10-16T15:56:35.293Z,12.40
2017-10-16T15:59:03.606Z,11.37
2017-10-16T16:01:31.874Z,12.80
2017-10-16T16:04:00.159Z,13.90
2017-10-16T16:06:28.641Z,14.77
2017-10-16T16:08:57.022Z,12.77
2017-10-16T16:11:25.297Z,12.17
2017-10-16T16:13:53.601Z,23.50
2017-10-16T16:16:21.885Z,19.53
2017-10-16T16:18:50.187Z,12.97
2017-10-16T16:21:18.466Z,14.20
2017-10-16T16:23:46.799Z,15.37
2017-10-16T16:26:15.169Z,14.77
2017-10-16T16:28:43.542Z,12.17
2017-10-16T16:31:11.818Z,12.83
2017-10-16T16:33:40.134Z,13.00
2017-10-16T16:36:08.413Z,13.50
2017-10-16T16:38:36.714Z,12.03
2017-10-16T16:41:04.998Z,12.90
2017-10-16T16:43:33.305Z,14.77
2017-10-16T16:46:02.362Z,16.00
2017-10-16T16:48:31.484Z,14.63
2017-10-16T16:51:00.610Z,13.80
2017-10-16T16:53:29.075Z,13.27
2017-10-16T16:55:57.418Z,12.90
2017-10-16T16:58:25.694Z,14.20
2017-10-16T17:00:53.982Z,14.77
2017-10-16T17:03:22.364Z,14.20
2017-10-16T17:05:51.087Z,14.93
2017-10-16T17:08:19.356Z,12.90
2017-10-16T17:10:47.653Z,16.43
2017-10-16T17:13:15.985Z,15.63
2017-10-16T17:15:45.037Z,13.77
2017-10-16T17:18:13.390Z,13.27
2017-10-16T17:20:41.731Z,14.67
2017-10-16T17:23:10.089Z,13.80
2017-10-16T17:25:38.392Z,14.23
2017-10-16T17:28:06.674Z,14.37
2017-10-16T17:30:34.990Z,13.30
2017-10-16T17:33:03.254Z,19.13
2017-10-16T17:35:32.418Z,13.57
2017-10-16T17:38:00.796Z,15.33
2017-10-16T17:40:29.078Z,13.67
2017-10-16T17:42:57.348Z,16.07
2017-10-16T17:45:25.708Z,17.30
2017-10-16T17:47:54.025Z,17.33
2017-10-16T17:50:22.405Z,13.83
2017-10-16T17:52:50.802Z,14.03
2017-10-16T17:55:19.085Z,13.50
2017-10-16T17:57:47.454Z,14.13
2017-10-16T18:00:16.511Z,14.70
2017-10-16T18:02:44.791Z,14.37
2017-10-16T18:05:13.089Z,17.47
2017-10-16T18:07:41.381Z,15.60
2017-10-16T18:10:09.758Z,18.17
2017-10-16T18:12:38.050Z,15.70
2017-10-16T18:15:06.402Z,14.97
2017-10-16T18:17:34.698Z,17.33
2017-10-16T18:20:03.073Z,17.70
2017-10-16T18:22:31.441Z,39.57
2017-10-16T18:24:59.717Z,22.80
2017-10-16T18:27:28.013Z,18.00
2017-10-16T18:29:56.286Z,17.90
2017-10-16T18:32:24.583Z,17.70
2017-10-16T18:34:53.616Z,17.87
2017-10-16T18:37:21.921Z,14.20
2017-10-16T18:39:50.182Z,19.17
2017-10-16T18:42:18.509Z,19.67
2017-10-16T18:44:47.585Z,15.47
2017-10-16T18:47:15.873Z,15.40
2017-10-16T18:49:44.938Z,15.67
2017-10-16T18:52:13.320Z,21.00
2017-10-16T18:54:41.605Z,33.43
2017-10-16T18:57:10.717Z,32.73
2017-10-16T18:59:40.600Z,21.53
2017-10-16T19:02:09.026Z,21.63
2017-10-16T19:04:37.352Z,16.63
2017-10-16T19:07:06.430Z,20.47
2017-10-16T19:09:36.259Z,15.73
2017-10-16T19:12:04.608Z,20.77
2017-10-16T19:14:33.039Z,17.77
2017-10-16T19:17:01.450Z,20.80
2017-10-16T19:19:31.470Z,16.30
2017-10-16T19:21:59.760Z,19.20
2017-10-16T19:24:28.125Z,18.17
2017-10-16T19:26:56.417Z,19.90
2017-10-16T19:29:24.706Z,19.07
2017-10-16T19:31:53.046Z,21.57
2017-10-16T19:34:21.325Z,18.50
2017-10-16T19:36:49.749Z,22.17
2017-10-16T19:39:18.826Z,18.40
2017-10-16T19:41:47.108Z,23.97
2017-10-16T19:44:15.378Z,18.33
2017-10-16T19:46:43.675Z,19.43
2017-10-16T19:49:12.725Z,18.70
2017-10-16T19:51:41.026Z,17.33
2017-10-16T19:54:09.307Z,20.60
2017-10-16T19:56:37.626Z,17.83
2017-10-16T19:59:05.906Z,19.60
2017-10-16T20:01:34.227Z,21.97
2017-10-16T20:04:02.492Z,19.20
2017-10-16T20:06:30.793Z,24.87
2017-10-16T20:08:59.857Z,19.20
2017-10-16T20:11:28.136Z,18.00
2017-10-16T20:13:56.430Z,21.70
2017-10-16T20:16:24.689Z,18.07
2017-10-16T20:18:52.994Z,18.10
2017-10-16T20:21:21.379Z,16.50
2017-10-16T20:23:49.661Z,21.30
2017-10-16T20:26:17.958Z,19.23
2017-10-16T20:28:47.027Z,20.93
2017-10-16T20:31:15.322Z,19.73
2017-10-16T20:33:43.633Z,19.33
2017-10-16T20:36:11.900Z,21.10
2017-10-16T20:38:40.255Z,17.97
2017-10-16T20:41:09.297Z,20.23
2017-10-16T20:43:37.592Z,19.47
2017-10-16T20:46:05.869Z,20.17
2017-10-16T20:48:34.173Z,17.80
2017-10-16T20:51:02.809Z,20.83
2017-10-16T20:53:31.139Z,23.23
2017-10-16T20:55:59.400Z,20.30
2017-10-16T20:58:27.784Z,18.90
2017-10-16T21:00:56.076Z,20.00
2017-10-16T21:03:24.461Z,21.10
2017-10-16T21:05:52.734Z,18.60
2017-10-16T21:08:21.033Z,19.90
2017-10-16T21:10:49.310Z,21.40
2017-10-16T21:13:18.369Z,24.40
2017-10-16T21:15:46.697Z,21.13
2017-10-16T21:18:15.013Z,57.03
2017-10-16T21:20:43.398Z,27.57
2017-10-16T21:23:11.680Z,19.47
2017-10-16T21:25:39.960Z,18.07
2017-10-16T21:28:08.331Z,23.40
2017-10-16T21:30:36.613Z,17.57
2017-10-16T21:33:06.416Z,17.90
2017-10-16T21:35:35.106Z,21.77
2017-10-16T21:38:03.425Z,17.07
2017-10-16T21:40:32.463Z,21.33
2017-10-16T21:43:00.758Z,19.27
2017-10-16T21:45:29.031Z,18.00
2017-10-16T21:47:57.343Z,24.90
2017-10-16T21:50:26.406Z,19.60
2017-10-16T21:52:54.697Z,19.70
2017-10-16T21:55:22.957Z,20.47
2017-10-16T21:57:51.289Z,17.87
2017-10-16T22:00:20.346Z,19.20
2017-10-16T22:02:48.651Z,16.90
2017-10-16T22:05:17.721Z,18.40
2017-10-16T22:07:46.085Z,20.70
2017-10-16T22:10:14.365Z,19.70
2017-10-16T22:12:42.654Z,18.40
2017-10-16T22:15:10.925Z,19.93
2017-10-16T22:17:39.231Z,19.80
2017-10-16T22:20:08.289Z,21.27
2017-10-16T22:22:36.588Z,23.83
2017-10-16T22:25:04.877Z,17.80
2017-10-16T22:27:34.063Z,19.20
2017-10-16T22:30:02.325Z,17.97
2017-10-16T22:32:30.646Z,19.40
2017-10-16T22:34:58.922Z,17.83
2017-10-16T22:37:27.245Z,21.20
2017-10-16T22:39:55.533Z,22.57
2017-10-16T22:42:23.918Z,20.70
2017-10-16T22:44:52.197Z,19.70
2017-10-16T22:47:21.389Z,20.37
2017-10-16T22:49:49.665Z,23.00
2017-10-16T22:52:17.934Z,21.83
2017-10-16T22:54:47.037Z,18.70
2017-10-16T22:57:15.335Z,19.30
2017-10-16T22:59:44.394Z,18.77
2017-10-16T23:02:12.667Z,21.47
2017-10-16T23:04:41.059Z,20.90
2017-10-16T23:07:09.338Z,20.63
2017-10-16T23:09:37.820Z,18.30
2017-10-16T23:12:06.101Z,19.23
2017-10-16T23:14:34.386Z,21.30
2017-10-16T23:17:02.656Z,19.90
2017-10-16T23:19:31.032Z,17.80
2017-10-16T23:21:59.296Z,20.57
2017-10-16T23:24:27.589Z,19.50
2017-10-16T23:26:55.869Z,19.70
2017-10-16T23:29:24.241Z,18.03
2017-10-16T23:31:52.624Z,18.57
2017-10-16T23:34:20.922Z,20.13
2017-10-16T23:36:49.965Z,18.07
2017-10-16T23:39:18.269Z,21.90
2017-10-16T23:41:46.754Z,18.97
2017-10-16T23:44:15.030Z,19.83
2017-10-16T23:46:43.512Z,17.53
2017-10-16T23:49:11.882Z,19.67
2017-10-16T23:51:40.166Z,18.07
2017-10-16T23:54:08.555Z,19.27
2017-10-16T23:56:38.325Z,22.57
2017-10-16T23:59:06.610Z,20.97
